sensor_id;sensor_type;location;lat;lon;timestamp;pressure;altitude;pressure_sealevel;temperature;humidity
71889;BME280;59762;49.998;14.858;2022-07-29T00:02:01;97426.03;;;15.66;59.60
71889;BME280;59762;49.998;14.858;2022-07-29T00:04:26;97424.41;;;15.64;59.97
71889;BME280;59762;49.998;14.858;2022-07-29T00:06:52;97415.28;;;15.66;59.14
71889;BME280;59762;49.998;14.858;2022-07-29T00:09:18;97412.19;;;15.40;60.96
71889;BME280;59762;49.998;14.858;2022-07-29T00:11:43;97412.47;;;15.22;62.13
71889;BME280;59762;49.998;14.858;2022-07-29T00:14:09;97416.13;;;15.16;60.99
71889;BME280;59762;49.998;14.858;2022-07-29T00:16:35;97416.59;;;15.12;61.16
71889;BME280;59762;49.998;14.858;2022-07-29T00:19:00;97413.28;;;15.22;60.23
71889;BME280;59762;49.998;14.858;2022-07-29T00:21:26;97407.34;;;15.20;61.79
71889;BME280;59762;49.998;14.858;2022-07-29T00:23:52;97411.56;;;15.16;61.97
71889;BME280;59762;49.998;14.858;2022-07-29T00:26:17;97408.81;;;15.11;62.46
71889;BME280;59762;49.998;14.858;2022-07-29T00:28:43;97412.56;;;15.10;63.31
71889;BME280;59762;49.998;14.858;2022-07-29T00:31:08;97403.13;;;15.07;62.71
71889;BME280;59762;49.998;14.858;2022-07-29T00:33:34;97407.69;;;15.07;62.53
71889;BME280;59762;49.998;14.858;2022-07-29T00:36:00;97403.13;;;15.07;62.04
71889;BME280;59762;49.998;14.858;2022-07-29T00:38:25;97397.41;;;15.04;62.35
71889;BME280;59762;49.998;14.858;2022-07-29T00:40:51;97402.78;;;15.04;62.26
71889;BME280;59762;49.998;14.858;2022-07-29T00:43:17;97407.94;;;15.05;62.47
71889;BME280;59762;49.998;14.858;2022-07-29T00:45:42;97394.50;;;15.05;62.76
71889;BME280;59762;49.998;14.858;2022-07-29T00:48:08;97390.78;;;15.06;62.71
71889;BME280;59762;49.998;14.858;2022-07-29T00:50:35;97389.94;;;15.23;62.08
71889;BME280;59762;49.998;14.858;2022-07-29T00:53:02;97391.25;;;15.20;62.55
71889;BME280;59762;49.998;14.858;2022-07-29T00:55:29;97381.66;;;15.24;62.25
71889;BME280;59762;49.998;14.858;2022-07-29T00:57:56;97372.13;;;15.33;61.72
71889;BME280;59762;49.998;14.858;2022-07-29T01:00:25;97374.56;;;15.35;62.21
71889;BME280;59762;49.998;14.858;2022-07-29T01:02:52;97376.56;;;15.45;61.63
71889;BME280;59762;49.998;14.858;2022-07-29T01:05:19;97369.34;;;15.45;61.66
71889;BME280;59762;49.998;14.858;2022-07-29T01:07:46;97366.47;;;15.52;61.36
71889;BME280;59762;49.998;14.858;2022-07-29T01:10:14;97362.91;;;15.46;61.60
71889;BME280;59762;49.998;14.858;2022-07-29T01:12:42;97370.38;;;15.44;61.61
71889;BME280;59762;49.998;14.858;2022-07-29T01:15:08;97363.47;;;15.48;61.30
71889;BME280;59762;49.998;14.858;2022-07-29T01:17:50;97361.59;;;15.49;61.33
71889;BME280;59762;49.998;14.858;2022-07-29T01:20:49;97357.78;;;15.45;61.72
71889;BME280;59762;49.998;14.858;2022-07-29T01:34:21;97348.50;;;15.52;61.04
71889;BME280;59762;49.998;14.858;2022-07-29T01:37:01;97343.19;;;15.57;60.75
71889;BME280;59762;49.998;14.858;2022-07-29T01:39:37;97340.44;;;15.52;60.82
71889;BME280;59762;49.998;14.858;2022-07-29T01:42:14;97333.19;;;15.53;60.49
71889;BME280;59762;49.998;14.858;2022-07-29T01:45:02;97339.06;;;15.50;60.87
71889;BME280;59762;49.998;14.858;2022-07-29T01:47:37;97334.47;;;15.45;61.18
71889;BME280;59762;49.998;14.858;2022-07-29T01:50:08;97335.19;;;15.41;61.14
71889;BME280;59762;49.998;14.858;2022-07-29T01:52:43;97332.25;;;15.42;61.00
71889;BME280;59762;49.998;14.858;2022-07-29T01:55:12;97338.19;;;15.44;60.84
71889;BME280;59762;49.998;14.858;2022-07-29T01:57:40;97331.50;;;15.47;60.60
71889;BME280;59762;49.998;14.858;2022-07-29T02:00:07;97333.78;;;15.55;60.22
71889;BME280;59762;49.998;14.858;2022-07-29T02:02:35;97330.81;;;15.56;60.47
71889;BME280;59762;49.998;14.858;2022-07-29T02:05:05;97323.91;;;15.60;59.75
71889;BME280;59762;49.998;14.858;2022-07-29T02:07:33;97327.13;;;15.62;59.47
71889;BME280;59762;49.998;14.858;2022-07-29T02:10:02;97323.34;;;15.58;59.90
71889;BME280;59762;49.998;14.858;2022-07-29T02:12:29;97325.13;;;15.70;59.24
71889;BME280;59762;49.998;14.858;2022-07-29T02:14:59;97323.75;;;15.67;59.13
71889;BME280;59762;49.998;14.858;2022-07-29T02:17:45;97327.81;;;15.70;59.17
71889;BME280;59762;49.998;14.858;2022-07-29T02:20:12;97326.44;;;15.67;58.84
71889;BME280;59762;49.998;14.858;2022-07-29T02:22:39;97324.44;;;15.62;59.27
71889;BME280;59762;49.998;14.858;2022-07-29T02:25:10;97328.47;;;15.60;59.20
71889;BME280;59762;49.998;14.858;2022-07-29T02:27:37;97332.97;;;15.54;60.25
71889;BME280;59762;49.998;14.858;2022-07-29T02:30:04;97323.19;;;15.48;59.60
71889;BME280;59762;49.998;14.858;2022-07-29T02:32:32;97325.66;;;15.50;59.70
71889;BME280;59762;49.998;14.858;2022-07-29T02:35:00;97331.84;;;15.50;59.57
71889;BME280;59762;49.998;14.858;2022-07-29T02:37:27;97330.50;;;15.53;59.46
71889;BME280;59762;49.998;14.858;2022-07-29T02:39:54;97349.56;;;15.51;59.38
71889;BME280;59762;49.998;14.858;2022-07-29T02:42:22;97331.91;;;15.55;59.26
71889;BME280;59762;49.998;14.858;2022-07-29T02:44:49;97341.06;;;15.59;58.88
71889;BME280;59762;49.998;14.858;2022-07-29T02:47:34;97332.16;;;15.54;59.37
71889;BME280;59762;49.998;14.858;2022-07-29T02:52:43;97336.25;;;15.61;59.02
71889;BME280;59762;49.998;14.858;2022-07-29T02:55:19;97334.63;;;15.60;59.34
71889;BME280;59762;49.998;14.858;2022-07-29T02:58:00;97336.53;;;15.60;59.63
71889;BME280;59762;49.998;14.858;2022-07-29T03:00:29;97329.28;;;15.60;59.41
71889;BME280;59762;49.998;14.858;2022-07-29T03:02:57;97328.38;;;15.72;59.10
71889;BME280;59762;49.998;14.858;2022-07-29T03:05:25;97327.06;;;15.74;59.43
71889;BME280;59762;49.998;14.858;2022-07-29T03:08:01;97330.81;;;15.73;59.46
71889;BME280;59762;49.998;14.858;2022-07-29T03:10:28;97340.47;;;15.74;59.15
71889;BME280;59762;49.998;14.858;2022-07-29T03:12:55;97336.72;;;15.75;59.08
71889;BME280;59762;49.998;14.858;2022-07-29T03:15:21;97336.50;;;15.77;59.10
71889;BME280;59762;49.998;14.858;2022-07-29T03:17:49;97341.34;;;15.80;59.08
71889;BME280;59762;49.998;14.858;2022-07-29T03:20:15;97340.03;;;15.82;59.03
71889;BME280;59762;49.998;14.858;2022-07-29T03:22:42;97338.75;;;15.85;58.48
71889;BME280;59762;49.998;14.858;2022-07-29T03:25:13;97331.03;;;15.94;57.97
71889;BME280;59762;49.998;14.858;2022-07-29T03:27:39;97335.41;;;16.00;57.33
71889;BME280;59762;49.998;14.858;2022-07-29T03:30:05;97333.28;;;16.02;57.79
71889;BME280;59762;49.998;14.858;2022-07-29T03:32:32;97326.53;;;15.99;57.67
71889;BME280;59762;49.998;14.858;2022-07-29T03:34:58;97320.09;;;16.00;57.67
71889;BME280;59762;49.998;14.858;2022-07-29T03:37:23;97328.09;;;15.95;57.91
71889;BME280;59762;49.998;14.858;2022-07-29T03:39:50;97324.16;;;16.03;57.37
71889;BME280;59762;49.998;14.858;2022-07-29T03:42:19;97320.97;;;16.06;57.45
71889;BME280;59762;49.998;14.858;2022-07-29T03:44:47;97318.50;;;15.99;57.76
71889;BME280;59762;49.998;14.858;2022-07-29T03:47:14;97305.50;;;15.91;57.58
71889;BME280;59762;49.998;14.858;2022-07-29T03:49:44;97316.50;;;15.89;58.53
71889;BME280;59762;49.998;14.858;2022-07-29T03:52:13;97318.81;;;15.81;59.14
71889;BME280;59762;49.998;14.858;2022-07-29T03:54:39;97321.41;;;15.76;59.02
71889;BME280;59762;49.998;14.858;2022-07-29T03:57:06;97314.69;;;15.73;58.86
71889;BME280;59762;49.998;14.858;2022-07-29T03:59:33;97317.44;;;15.78;58.22
71889;BME280;59762;49.998;14.858;2022-07-29T04:02:00;97314.44;;;15.75;58.30
71889;BME280;59762;49.998;14.858;2022-07-29T04:04:27;97308.06;;;15.81;57.88
71889;BME280;59762;49.998;14.858;2022-07-29T04:06:53;97306.19;;;15.81;58.33
71889;BME280;59762;49.998;14.858;2022-07-29T04:09:18;97310.25;;;15.84;58.42
71889;BME280;59762;49.998;14.858;2022-07-29T04:11:44;97309.47;;;15.88;58.04
71889;BME280;59762;49.998;14.858;2022-07-29T04:14:10;97310.44;;;15.99;58.05
71889;BME280;59762;49.998;14.858;2022-07-29T04:16:36;97308.22;;;15.96;58.19
71889;BME280;59762;49.998;14.858;2022-07-29T04:19:01;97314.38;;;15.92;57.95
71889;BME280;59762;49.998;14.858;2022-07-29T04:21:27;97316.25;;;15.91;58.09
71889;BME280;59762;49.998;14.858;2022-07-29T04:23:52;97313.59;;;15.96;58.84
71889;BME280;59762;49.998;14.858;2022-07-29T04:26:19;97315.75;;;15.94;58.86
71889;BME280;59762;49.998;14.858;2022-07-29T04:28:45;97316.50;;;15.89;59.80
71889;BME280;59762;49.998;14.858;2022-07-29T04:31:12;97313.06;;;15.94;59.38
71889;BME280;59762;49.998;14.858;2022-07-29T04:33:38;97323.59;;;16.01;58.45
71889;BME280;59762;49.998;14.858;2022-07-29T04:36:04;97318.53;;;16.04;59.47
71889;BME280;59762;49.998;14.858;2022-07-29T04:38:30;97322.66;;;16.12;60.24
71889;BME280;59762;49.998;14.858;2022-07-29T04:40:55;97311.91;;;16.12;60.77
71889;BME280;59762;49.998;14.858;2022-07-29T04:43:21;97314.34;;;16.13;60.26
71889;BME280;59762;49.998;14.858;2022-07-29T04:45:46;97320.88;;;16.23;58.64
71889;BME280;59762;49.998;14.858;2022-07-29T04:48:12;97318.50;;;16.26;59.71
71889;BME280;59762;49.998;14.858;2022-07-29T04:50:38;97322.50;;;16.24;59.96
71889;BME280;59762;49.998;14.858;2022-07-29T04:53:05;97330.72;;;16.39;58.96
71889;BME280;59762;49.998;14.858;2022-07-29T04:55:31;97330.41;;;16.68;58.93
71889;BME280;59762;49.998;14.858;2022-07-29T04:57:56;97329.75;;;17.14;58.84
71889;BME280;59762;49.998;14.858;2022-07-29T05:00:22;97334.44;;;17.34;59.17
71889;BME280;59762;49.998;14.858;2022-07-29T05:02:49;97334.13;;;17.78;58.91
71889;BME280;59762;49.998;14.858;2022-07-29T05:05:14;97336.22;;;18.54;56.55
71889;BME280;59762;49.998;14.858;2022-07-29T05:07:40;97334.06;;;19.28;53.30
71889;BME280;59762;49.998;14.858;2022-07-29T05:10:06;97340.75;;;19.56;50.74
71889;BME280;59762;49.998;14.858;2022-07-29T05:12:32;97335.91;;;19.58;50.47
71889;BME280;59762;49.998;14.858;2022-07-29T05:14:58;97333.00;;;19.03;51.13
71889;BME280;59762;49.998;14.858;2022-07-29T05:17:23;97330.53;;;18.40;54.32
71889;BME280;59762;49.998;14.858;2022-07-29T05:19:49;97327.97;;;17.88;54.91
71889;BME280;59762;49.998;14.858;2022-07-29T05:22:18;97337.09;;;17.77;54.35
71889;BME280;59762;49.998;14.858;2022-07-29T05:24:43;97334.66;;;18.84;54.01
71889;BME280;59762;49.998;14.858;2022-07-29T05:27:09;97338.31;;;19.70;52.97
71889;BME280;59762;49.998;14.858;2022-07-29T05:29:35;97324.59;;;19.46;52.15
71889;BME280;59762;49.998;14.858;2022-07-29T05:32:00;97342.47;;;19.01;51.27
71889;BME280;59762;49.998;14.858;2022-07-29T05:34:26;97343.78;;;18.52;53.25
71889;BME280;59762;49.998;14.858;2022-07-29T05:36:52;97342.69;;;18.53;53.29
71889;BME280;59762;49.998;14.858;2022-07-29T05:39:19;97344.53;;;18.32;52.29
71889;BME280;59762;49.998;14.858;2022-07-29T05:41:44;97335.34;;;18.23;54.70
71889;BME280;59762;49.998;14.858;2022-07-29T05:44:10;97336.16;;;18.24;56.07
71889;BME280;59762;49.998;14.858;2022-07-29T05:46:36;97340.03;;;18.69;55.36
71889;BME280;59762;49.998;14.858;2022-07-29T05:49:02;97335.53;;;19.90;52.43
71889;BME280;59762;49.998;14.858;2022-07-29T05:51:28;97335.47;;;20.89;49.64
71889;BME280;59762;49.998;14.858;2022-07-29T05:53:55;97334.34;;;21.77;48.13
71889;BME280;59762;49.998;14.858;2022-07-29T05:56:20;97335.56;;;22.33;46.67
71889;BME280;59762;49.998;14.858;2022-07-29T05:58:46;97338.81;;;22.86;46.05
71889;BME280;59762;49.998;14.858;2022-07-29T06:01:11;97332.34;;;22.07;44.79
71889;BME280;59762;49.998;14.858;2022-07-29T06:03:37;97328.34;;;21.80;45.14
71889;BME280;59762;49.998;14.858;2022-07-29T06:06:03;97327.41;;;21.42;46.74
71889;BME280;59762;49.998;14.858;2022-07-29T06:08:29;97328.22;;;21.42;48.92
71889;BME280;59762;49.998;14.858;2022-07-29T06:10:55;97321.56;;;21.35;48.62
71889;BME280;59762;49.998;14.858;2022-07-29T06:13:20;97327.56;;;21.80;48.65
71889;BME280;59762;49.998;14.858;2022-07-29T06:15:46;97331.59;;;21.58;47.71
71889;BME280;59762;49.998;14.858;2022-07-29T06:18:12;97323.91;;;21.12;47.13
71889;BME280;59762;49.998;14.858;2022-07-29T06:20:38;97322.41;;;20.62;47.99
71889;BME280;59762;49.998;14.858;2022-07-29T06:23:04;97332.19;;;20.08;47.64
71889;BME280;59762;49.998;14.858;2022-07-29T06:25:29;97335.41;;;20.15;49.27
71889;BME280;59762;49.998;14.858;2022-07-29T06:27:55;97324.47;;;20.36;49.83
71889;BME280;59762;49.998;14.858;2022-07-29T06:30:21;97325.97;;;20.57;50.32
71889;BME280;59762;49.998;14.858;2022-07-29T06:32:47;97333.19;;;20.72;50.65
71889;BME280;59762;49.998;14.858;2022-07-29T06:35:12;97329.22;;;20.59;49.75
71889;BME280;59762;49.998;14.858;2022-07-29T06:37:38;97334.63;;;20.59;50.11
71889;BME280;59762;49.998;14.858;2022-07-29T06:40:04;97344.41;;;20.55;50.40
71889;BME280;59762;49.998;14.858;2022-07-29T06:42:48;97342.22;;;20.57;50.76
71889;BME280;59762;49.998;14.858;2022-07-29T06:45:14;97342.91;;;20.29;49.04
71889;BME280;59762;49.998;14.858;2022-07-29T06:47:39;97340.75;;;20.26;52.41
71889;BME280;59762;49.998;14.858;2022-07-29T06:50:05;97346.13;;;20.31;52.93
71889;BME280;59762;49.998;14.858;2022-07-29T06:52:31;97339.66;;;20.27;52.05
71889;BME280;59762;49.998;14.858;2022-07-29T06:54:56;97345.72;;;20.08;50.04
71889;BME280;59762;49.998;14.858;2022-07-29T06:57:22;97353.78;;;20.13;51.31
71889;BME280;59762;49.998;14.858;2022-07-29T06:59:48;97351.38;;;20.12;51.39
71889;BME280;59762;49.998;14.858;2022-07-29T07:02:14;97354.22;;;20.36;53.71
71889;BME280;59762;49.998;14.858;2022-07-29T07:04:39;97349.38;;;20.33;52.34
71889;BME280;59762;49.998;14.858;2022-07-29T07:07:05;97350.91;;;20.44;53.13
71889;BME280;59762;49.998;14.858;2022-07-29T07:09:30;97354.47;;;20.39;51.37
71889;BME280;59762;49.998;14.858;2022-07-29T07:11:56;97349.88;;;20.40;50.27
71889;BME280;59762;49.998;14.858;2022-07-29T07:14:22;97348.50;;;20.48;51.69
71889;BME280;59762;49.998;14.858;2022-07-29T07:16:47;97351.75;;;20.50;51.15
71889;BME280;59762;49.998;14.858;2022-07-29T07:19:13;97343.25;;;20.61;49.93
71889;BME280;59762;49.998;14.858;2022-07-29T07:21:38;97344.88;;;20.68;50.27
71889;BME280;59762;49.998;14.858;2022-07-29T07:24:04;97347.00;;;20.71;49.50
71889;BME280;59762;49.998;14.858;2022-07-29T07:26:30;97357.56;;;20.67;51.57
71889;BME280;59762;49.998;14.858;2022-07-29T07:28:56;97348.59;;;20.72;49.61
71889;BME280;59762;49.998;14.858;2022-07-29T07:31:21;97352.94;;;20.73;50.27
71889;BME280;59762;49.998;14.858;2022-07-29T07:33:47;97349.69;;;20.71;50.33
71889;BME280;59762;49.998;14.858;2022-07-29T07:36:13;97349.19;;;20.69;49.96
71889;BME280;59762;49.998;14.858;2022-07-29T07:38:38;97345.88;;;20.72;49.98
71889;BME280;59762;49.998;14.858;2022-07-29T07:41:04;97347.56;;;20.68;50.53
71889;BME280;59762;49.998;14.858;2022-07-29T07:43:30;97351.03;;;20.73;51.63
71889;BME280;59762;49.998;14.858;2022-07-29T07:45:55;97354.81;;;20.77;50.16
71889;BME280;59762;49.998;14.858;2022-07-29T07:48:21;97354.72;;;20.87;51.91
71889;BME280;59762;49.998;14.858;2022-07-29T07:50:46;97347.50;;;20.78;50.02
71889;BME280;59762;49.998;14.858;2022-07-29T07:53:14;97350.25;;;20.73;52.06
71889;BME280;59762;49.998;14.858;2022-07-29T07:55:41;97348.34;;;20.73;53.02
71889;BME280;59762;49.998;14.858;2022-07-29T07:58:07;97343.75;;;20.69;52.73
71889;BME280;59762;49.998;14.858;2022-07-29T08:00:33;97340.84;;;20.60;52.43
71889;BME280;59762;49.998;14.858;2022-07-29T08:02:59;97343.09;;;20.42;52.07
71889;BME280;59762;49.998;14.858;2022-07-29T08:05:24;97340.19;;;20.34;51.53
71889;BME280;59762;49.998;14.858;2022-07-29T08:07:50;97352.28;;;20.47;54.00
71889;BME280;59762;49.998;14.858;2022-07-29T08:10:17;97349.88;;;20.40;53.48
71889;BME280;59762;49.998;14.858;2022-07-29T08:13:04;97353.72;;;20.29;52.52
71889;BME280;59762;49.998;14.858;2022-07-29T08:15:30;97348.78;;;20.41;53.42
71889;BME280;59762;49.998;14.858;2022-07-29T08:17:56;97350.97;;;20.39;53.50
71889;BME280;59762;49.998;14.858;2022-07-29T08:20:21;97360.66;;;20.45;53.55
71889;BME280;59762;49.998;14.858;2022-07-29T08:22:47;97352.53;;;20.45;54.38
71889;BME280;59762;49.998;14.858;2022-07-29T08:25:12;97351.47;;;20.51;52.27
71889;BME280;59762;49.998;14.858;2022-07-29T08:27:38;97360.03;;;20.63;52.59
71889;BME280;59762;49.998;14.858;2022-07-29T08:30:04;97355.75;;;20.57;51.70
71889;BME280;59762;49.998;14.858;2022-07-29T08:32:30;97360.63;;;20.55;53.96
71889;BME280;59762;49.998;14.858;2022-07-29T08:34:56;97363.38;;;20.50;52.04
71889;BME280;59762;49.998;14.858;2022-07-29T08:37:22;97366.31;;;20.54;51.79
71889;BME280;59762;49.998;14.858;2022-07-29T08:39:48;97368.25;;;20.48;52.30
71889;BME280;59762;49.998;14.858;2022-07-29T08:42:13;97363.09;;;20.52;52.07
71889;BME280;59762;49.998;14.858;2022-07-29T08:44:42;97360.38;;;20.47;52.03
71889;BME280;59762;49.998;14.858;2022-07-29T08:47:07;97361.19;;;20.52;53.00
71889;BME280;59762;49.998;14.858;2022-07-29T08:49:34;97367.78;;;20.75;53.81
71889;BME280;59762;49.998;14.858;2022-07-29T08:52:00;97373.91;;;20.91;51.82
71889;BME280;59762;49.998;14.858;2022-07-29T08:54:27;97371.66;;;20.98;51.41
71889;BME280;59762;49.998;14.858;2022-07-29T08:56:53;97380.84;;;21.07;51.51
71889;BME280;59762;49.998;14.858;2022-07-29T08:59:20;97378.63;;;21.09;51.07
71889;BME280;59762;49.998;14.858;2022-07-29T09:01:48;97382.03;;;21.25;52.11
71889;BME280;59762;49.998;14.858;2022-07-29T09:04:17;97377.72;;;21.19;53.36
71889;BME280;59762;49.998;14.858;2022-07-29T09:06:47;97373.13;;;21.20;52.20
71889;BME280;59762;49.998;14.858;2022-07-29T09:09:13;97375.88;;;21.14;52.62
71889;BME280;59762;49.998;14.858;2022-07-29T09:11:41;97378.03;;;21.17;53.86
71889;BME280;59762;49.998;14.858;2022-07-29T09:14:07;97380.38;;;21.24;51.55
71889;BME280;59762;49.998;14.858;2022-07-29T09:16:46;97374.81;;;21.10;53.19
71889;BME280;59762;49.998;14.858;2022-07-29T09:19:33;97381.44;;;21.28;54.70
71889;BME280;59762;49.998;14.858;2022-07-29T09:22:02;97380.69;;;21.23;53.25
71889;BME280;59762;49.998;14.858;2022-07-29T09:24:46;97386.72;;;21.14;52.36
71889;BME280;59762;49.998;14.858;2022-07-29T09:27:24;97391.56;;;21.17;53.45
71889;BME280;59762;49.998;14.858;2022-07-29T09:30:18;97383.00;;;21.05;53.05
71889;BME280;59762;49.998;14.858;2022-07-29T09:33:00;97376.06;;;20.94;51.85
71889;BME280;59762;49.998;14.858;2022-07-29T09:35:30;97368.50;;;20.91;52.93
71889;BME280;59762;49.998;14.858;2022-07-29T09:37:56;97361.44;;;20.95;53.90
71889;BME280;59762;49.998;14.858;2022-07-29T09:40:26;97367.19;;;21.17;51.90
71889;BME280;59762;49.998;14.858;2022-07-29T09:42:53;97360.13;;;21.22;54.43
71889;BME280;59762;49.998;14.858;2022-07-29T09:45:40;97361.22;;;21.21;52.59
71889;BME280;59762;49.998;14.858;2022-07-29T09:48:25;97352.00;;;21.51;54.15
71889;BME280;59762;49.998;14.858;2022-07-29T09:50:51;97364.69;;;21.55;51.35
71889;BME280;59762;49.998;14.858;2022-07-29T09:53:34;97355.34;;;21.66;50.81
71889;BME280;59762;49.998;14.858;2022-07-29T09:56:02;97346.06;;;21.73;51.88
71889;BME280;59762;49.998;14.858;2022-07-29T09:58:28;97345.09;;;21.87;51.01
71889;BME280;59762;49.998;14.858;2022-07-29T10:00:54;97350.00;;;22.04;52.47
71889;BME280;59762;49.998;14.858;2022-07-29T10:03:20;97342.81;;;22.19;52.05
71889;BME280;59762;49.998;14.858;2022-07-29T10:06:04;97352.88;;;22.37;52.41
71889;BME280;59762;49.998;14.858;2022-07-29T10:08:29;97363.50;;;22.52;51.31
71889;BME280;59762;49.998;14.858;2022-07-29T10:11:17;97363.28;;;22.67;49.43
71889;BME280;59762;49.998;14.858;2022-07-29T10:13:44;97356.81;;;23.01;50.74
71889;BME280;59762;49.998;14.858;2022-07-29T10:16:11;97365.81;;;23.15;49.24
71889;BME280;59762;49.998;14.858;2022-07-29T10:18:39;97357.81;;;23.05;49.48
71889;BME280;59762;49.998;14.858;2022-07-29T10:21:05;97353.22;;;23.20;47.87
71889;BME280;59762;49.998;14.858;2022-07-29T10:23:31;97353.44;;;23.23;49.20
71889;BME280;59762;49.998;14.858;2022-07-29T10:25:58;97348.88;;;23.05;47.66
71889;BME280;59762;49.998;14.858;2022-07-29T10:28:24;97347.72;;;22.92;49.01
71889;BME280;59762;49.998;14.858;2022-07-29T10:30:51;97347.94;;;22.96;50.89
71889;BME280;59762;49.998;14.858;2022-07-29T10:34:03;97349.31;;;22.93;50.75
71889;BME280;59762;49.998;14.858;2022-07-29T10:36:35;97359.22;;;22.84;50.72
71889;BME280;59762;49.998;14.858;2022-07-29T10:41:56;97347.28;;;22.85;49.76
71889;BME280;59762;49.998;14.858;2022-07-29T10:44:20;97341.25;;;22.88;51.44
71889;BME280;59762;49.998;14.858;2022-07-29T10:46:48;97344.13;;;22.97;51.94
71889;BME280;59762;49.998;14.858;2022-07-29T10:49:19;97341.50;;;22.91;51.24
71889;BME280;59762;49.998;14.858;2022-07-29T10:51:57;97340.09;;;22.94;51.60
71889;BME280;59762;49.998;14.858;2022-07-29T10:59:43;97340.84;;;23.13;50.43
71889;BME280;59762;49.998;14.858;2022-07-29T11:07:22;97342.13;;;23.49;51.27
71889;BME280;59762;49.998;14.858;2022-07-29T11:15:08;97347.25;;;23.50;49.19
71889;BME280;59762;49.998;14.858;2022-07-29T11:20:39;97349.84;;;23.74;50.74
71889;BME280;59762;49.998;14.858;2022-07-29T11:23:26;97346.31;;;23.74;48.70
71889;BME280;59762;49.998;14.858;2022-07-29T11:31:46;97342.59;;;23.70;48.67
71889;BME280;59762;49.998;14.858;2022-07-29T11:34:17;97347.22;;;23.69;51.07
71889;BME280;59762;49.998;14.858;2022-07-29T11:45:05;97345.31;;;23.37;50.41
71889;BME280;59762;49.998;14.858;2022-07-29T11:47:34;97352.25;;;23.15;49.71
71889;BME280;59762;49.998;14.858;2022-07-29T11:50:01;97348.53;;;23.25;50.10
71889;BME280;59762;49.998;14.858;2022-07-29T11:52:45;97358.72;;;23.33;52.78
71889;BME280;59762;49.998;14.858;2022-07-29T11:55:19;97364.56;;;23.40;51.84
71889;BME280;59762;49.998;14.858;2022-07-29T11:57:57;97357.72;;;23.43;51.79
71889;BME280;59762;49.998;14.858;2022-07-29T12:00:47;97360.78;;;23.55;52.08
71889;BME280;59762;49.998;14.858;2022-07-29T12:03:24;97353.09;;;23.44;51.74
71889;BME280;59762;49.998;14.858;2022-07-29T12:05:50;97356.56;;;23.77;51.30
71889;BME280;59762;49.998;14.858;2022-07-29T12:08:19;97352.94;;;23.81;50.54
71889;BME280;59762;49.998;14.858;2022-07-29T12:10:50;97357.56;;;23.81;52.12
71889;BME280;59762;49.998;14.858;2022-07-29T12:13:18;97354.59;;;23.50;49.24
71889;BME280;59762;49.998;14.858;2022-07-29T12:15:55;97356.88;;;23.75;50.65
71889;BME280;59762;49.998;14.858;2022-07-29T12:18:23;97349.41;;;23.67;50.84
71889;BME280;59762;49.998;14.858;2022-07-29T12:20:49;97350.03;;;23.78;50.00
71889;BME280;59762;49.998;14.858;2022-07-29T12:23:21;97345.50;;;24.01;51.62
71889;BME280;59762;49.998;14.858;2022-07-29T12:25:47;97339.72;;;24.02;50.31
71889;BME280;59762;49.998;14.858;2022-07-29T12:28:14;97346.88;;;23.98;50.41
71889;BME280;59762;49.998;14.858;2022-07-29T12:30:42;97335.22;;;23.98;47.96
71889;BME280;59762;49.998;14.858;2022-07-29T12:35:38;97332.50;;;23.84;51.44
71889;BME280;59762;49.998;14.858;2022-07-29T12:38:04;97329.38;;;23.77;52.13
71889;BME280;59762;49.998;14.858;2022-07-29T12:40:30;97324.34;;;23.70;52.23
71889;BME280;59762;49.998;14.858;2022-07-29T12:43:10;97321.59;;;23.56;53.09
71889;BME280;59762;49.998;14.858;2022-07-29T12:45:37;97322.50;;;23.52;52.85
71889;BME280;59762;49.998;14.858;2022-07-29T12:48:04;97317.34;;;23.36;51.02
71889;BME280;59762;49.998;14.858;2022-07-29T12:50:30;97314.34;;;23.38;50.76
71889;BME280;59762;49.998;14.858;2022-07-29T12:53:13;97318.13;;;23.37;51.39
71889;BME280;59762;49.998;14.858;2022-07-29T12:55:50;97322.59;;;23.60;51.58
71889;BME280;59762;49.998;14.858;2022-07-29T12:58:45;97317.69;;;23.76;52.27
71889;BME280;59762;49.998;14.858;2022-07-29T13:01:16;97314.84;;;23.81;50.07
71889;BME280;59762;49.998;14.858;2022-07-29T13:06:42;97306.31;;;23.88;50.15
71889;BME280;59762;49.998;14.858;2022-07-29T13:09:11;97295.22;;;23.98;50.65
71889;BME280;59762;49.998;14.858;2022-07-29T13:14:08;97299.50;;;24.27;51.73
71889;BME280;59762;49.998;14.858;2022-07-29T13:16:35;97291.22;;;24.32;49.56
71889;BME280;59762;49.998;14.858;2022-07-29T13:19:18;97293.44;;;24.66;51.59
71889;BME280;59762;49.998;14.858;2022-07-29T13:21:45;97289.88;;;24.65;49.22
71889;BME280;59762;49.998;14.858;2022-07-29T13:24:10;97289.22;;;24.60;47.37
71889;BME280;59762;49.998;14.858;2022-07-29T13:26:39;97282.16;;;24.59;49.85
71889;BME280;59762;49.998;14.858;2022-07-29T13:29:06;97287.94;;;24.57;48.50
71889;BME280;59762;49.998;14.858;2022-07-29T13:31:31;97291.31;;;24.63;50.17
71889;BME280;59762;49.998;14.858;2022-07-29T13:33:57;97289.59;;;24.45;48.18
71889;BME280;59762;49.998;14.858;2022-07-29T13:36:22;97283.81;;;24.46;50.00
71889;BME280;59762;49.998;14.858;2022-07-29T13:38:48;97279.91;;;24.38;49.55
71889;BME280;59762;49.998;14.858;2022-07-29T13:41:13;97275.06;;;24.35;49.77
71889;BME280;59762;49.998;14.858;2022-07-29T13:43:39;97274.56;;;24.33;52.01
71889;BME280;59762;49.998;14.858;2022-07-29T13:46:05;97270.09;;;24.15;51.91
71889;BME280;59762;49.998;14.858;2022-07-29T13:48:30;97267.03;;;24.16;51.20
71889;BME280;59762;49.998;14.858;2022-07-29T13:50:56;97276.31;;;24.15;52.70
71889;BME280;59762;49.998;14.858;2022-07-29T13:53:22;97279.19;;;23.97;50.66
71889;BME280;59762;49.998;14.858;2022-07-29T13:55:47;97278.09;;;23.84;51.40